sensor_id;sensor_type;location;lat;lon;timestamp;P1;P2;P0
62631;PMS5003;48703;51.248;-0.546;2023-04-28T00:02:37;7.99;7.34;
62631;PMS5003;48703;51.248;-0.546;2023-04-28T00:05:39;8.39;7.09;
62631;PMS5003;48703;51.248;-0.546;2023-04-28T00:08:40;5.76;5.76;
62631;PMS5003;48703;51.248;-0.546;2023-04-28T00:11:43;6.84;6.50;
62631;PMS5003;48703;51.248;-0.546;2023-04-28T00:14:44;6.43;6.30;
62631;PMS5003;48703;51.248;-0.546;2023-04-28T00:17:45;7.10;7.10;
62631;PMS5003;48703;51.248;-0.546;2023-04-28T00:20:47;6.81;6.34;
62631;PMS5003;48703;51.248;-0.546;2023-04-28T00:23:49;6.79;6.19;
62631;PMS5003;48703;51.248;-0.546;2023-04-28T00:26:50;7.70;7.07;
62631;PMS5003;48703;51.248;-0.546;2023-04-28T00:29:52;6.60;6.60;
62631;PMS5003;48703;51.248;-0.546;2023-04-28T00:32:53;6.84;6.23;
62631;PMS5003;48703;51.248;-0.546;2023-04-28T00:35:58;6.86;6.81;
62631;PMS5003;48703;51.248;-0.546;2023-04-28T00:38:56;7.36;6.67;
62631;PMS5003;48703;51.248;-0.546;2023-04-28T00:41:58;6.30;6.11;
62631;PMS5003;48703;51.248;-0.546;2023-04-28T00:45:00;8.63;7.71;
62631;PMS5003;48703;51.248;-0.546;2023-04-28T00:48:01;7.91;7.23;
62631;PMS5003;48703;51.248;-0.546;2023-04-28T00:51:03;10.17;9.30;
62631;PMS5003;48703;51.248;-0.546;2023-04-28T00:54:05;8.50;7.87;
62631;PMS5003;48703;51.248;-0.546;2023-04-28T00:57:06;10.06;9.36;
62631;PMS5003;48703;51.248;-0.546;2023-04-28T01:00:08;9.56;8.70;
62631;PMS5003;48703;51.248;-0.546;2023-04-28T01:03:09;8.69;8.33;
62631;PMS5003;48703;51.248;-0.546;2023-04-28T01:06:10;8.83;8.83;
62631;PMS5003;48703;51.248;-0.546;2023-04-28T01:09:12;8.71;8.34;
62631;PMS5003;48703;51.248;-0.546;2023-04-28T01:12:14;10.03;8.57;
62631;PMS5003;48703;51.248;-0.546;2023-04-28T01:15:16;11.49;10.41;
62631;PMS5003;48703;51.248;-0.546;2023-04-28T01:18:17;10.23;10.23;
62631;PMS5003;48703;51.248;-0.546;2023-04-28T01:21:24;12.51;11.46;
62631;PMS5003;48703;51.248;-0.546;2023-04-28T01:24:19;11.21;9.59;
62631;PMS5003;48703;51.248;-0.546;2023-04-28T01:27:22;11.06;10.97;
62631;PMS5003;48703;51.248;-0.546;2023-04-28T01:30:22;12.23;11.67;
62631;PMS5003;48703;51.248;-0.546;2023-04-28T01:33:24;11.53;10.84;
62631;PMS5003;48703;51.248;-0.546;2023-04-28T01:36:25;12.27;12.01;
62631;PMS5003;48703;51.248;-0.546;2023-04-28T01:39:27;13.71;12.01;
62631;PMS5003;48703;51.248;-0.546;2023-04-28T01:42:28;11.40;10.77;
62631;PMS5003;48703;51.248;-0.546;2023-04-28T01:45:30;12.20;11.26;
62631;PMS5003;48703;51.248;-0.546;2023-04-28T01:48:31;13.34;12.61;
62631;PMS5003;48703;51.248;-0.546;2023-04-28T01:51:33;12.06;11.01;
62631;PMS5003;48703;51.248;-0.546;2023-04-28T01:54:35;11.99;11.59;
62631;PMS5003;48703;51.248;-0.546;2023-04-28T01:57:37;15.10;12.20;
62631;PMS5003;48703;51.248;-0.546;2023-04-28T02:00:38;12.31;10.36;
62631;PMS5003;48703;51.248;-0.546;2023-04-28T02:03:40;12.23;11.29;
62631;PMS5003;48703;51.248;-0.546;2023-04-28T02:06:41;10.38;9.62;
62631;PMS5003;48703;51.248;-0.546;2023-04-28T02:09:42;12.26;9.80;
62631;PMS5003;48703;51.248;-0.546;2023-04-28T02:12:44;10.24;9.57;
62631;PMS5003;48703;51.248;-0.546;2023-04-28T02:15:45;11.76;11.24;
62631;PMS5003;48703;51.248;-0.546;2023-04-28T02:18:47;10.71;9.67;
62631;PMS5003;48703;51.248;-0.546;2023-04-28T02:21:48;8.87;8.58;
62631;PMS5003;48703;51.248;-0.546;2023-04-28T02:24:50;10.51;9.39;
62631;PMS5003;48703;51.248;-0.546;2023-04-28T02:27:51;8.99;7.39;
62631;PMS5003;48703;51.248;-0.546;2023-04-28T02:31:00;8.19;7.76;
62631;PMS5003;48703;51.248;-0.546;2023-04-28T02:33:55;8.43;8.00;
62631;PMS5003;48703;51.248;-0.546;2023-04-28T02:36:56;9.41;8.26;
62631;PMS5003;48703;51.248;-0.546;2023-04-28T02:39:58;10.84;9.13;
62631;PMS5003;48703;51.248;-0.546;2023-04-28T02:42:59;11.19;9.78;
62631;PMS5003;48703;51.248;-0.546;2023-04-28T02:46:01;8.29;8.06;
62631;PMS5003;48703;51.248;-0.546;2023-04-28T02:49:02;8.64;8.21;
62631;PMS5003;48703;51.248;-0.546;2023-04-28T02:52:04;7.24;6.06;
62631;PMS5003;48703;51.248;-0.546;2023-04-28T02:55:06;7.91;6.87;
62631;PMS5003;48703;51.248;-0.546;2023-04-28T02:58:07;6.89;5.91;
62631;PMS5003;48703;51.248;-0.546;2023-04-28T03:01:08;5.37;5.10;
62631;PMS5003;48703;51.248;-0.546;2023-04-28T03:04:10;3.71;3.29;
62631;PMS5003;48703;51.248;-0.546;2023-04-28T03:07:12;3.20;3.03;
62631;PMS5003;48703;51.248;-0.546;2023-04-28T03:10:13;1.64;1.64;
62631;PMS5003;48703;51.248;-0.546;2023-04-28T03:13:15;1.39;1.39;
62631;PMS5003;48703;51.248;-0.546;2023-04-28T03:16:16;0.86;0.86;
62631;PMS5003;48703;51.248;-0.546;2023-04-28T03:19:18;1.19;0.89;
62631;PMS5003;48703;51.248;-0.546;2023-04-28T03:22:20;2.20;1.30;
62631;PMS5003;48703;51.248;-0.546;2023-04-28T03:25:21;1.34;1.34;
62631;PMS5003;48703;51.248;-0.546;2023-04-28T03:28:23;1.04;1.04;
62631;PMS5003;48703;51.248;-0.546;2023-04-28T03:31:24;1.17;0.87;
62631;PMS5003;48703;51.248;-0.546;2023-04-28T03:34:26;0.86;0.64;
62631;PMS5003;48703;51.248;-0.546;2023-04-28T03:37:28;0.90;0.43;
62631;PMS5003;48703;51.248;-0.546;2023-04-28T03:40:29;0.47;0.36;
62631;PMS5003;48703;51.248;-0.546;2023-04-28T03:43:31;0.21;0.21;
62631;PMS5003;48703;51.248;-0.546;2023-04-28T03:46:32;0.00;0.00;
62631;PMS5003;48703;51.248;-0.546;2023-04-28T03:49:34;0.43;0.43;
62631;PMS5003;48703;51.248;-0.546;2023-04-28T03:52:36;0.26;0.26;
62631;PMS5003;48703;51.248;-0.546;2023-04-28T03:55:37;0.56;0.56;
62631;PMS5003;48703;51.248;-0.546;2023-04-28T03:58:39;0.23;0.23;
62631;PMS5003;48703;51.248;-0.546;2023-04-28T04:01:40;0.30;0.30;
62631;PMS5003;48703;51.248;-0.546;2023-04-28T04:04:42;0.60;0.60;
62631;PMS5003;48703;51.248;-0.546;2023-04-28T04:07:44;0.40;0.40;
62631;PMS5003;48703;51.248;-0.546;2023-04-28T04:10:45;0.69;0.69;
62631;PMS5003;48703;51.248;-0.546;2023-04-28T04:13:47;0.81;0.81;
62631;PMS5003;48703;51.248;-0.546;2023-04-28T04:16:49;0.87;0.87;
62631;PMS5003;48703;51.248;-0.546;2023-04-28T04:19:50;0.76;0.76;
62631;PMS5003;48703;51.248;-0.546;2023-04-28T04:22:52;1.11;1.11;
62631;PMS5003;48703;51.248;-0.546;2023-04-28T04:25:53;1.47;1.47;
62631;PMS5003;48703;51.248;-0.546;2023-04-28T04:28:55;0.99;0.81;
62631;PMS5003;48703;51.248;-0.546;2023-04-28T04:31:57;0.91;0.91;
62631;PMS5003;48703;51.248;-0.546;2023-04-28T04:34:58;1.79;1.53;
62631;PMS5003;48703;51.248;-0.546;2023-04-28T04:38:01;1.21;1.21;
62631;PMS5003;48703;51.248;-0.546;2023-04-28T04:41:01;1.31;1.31;
62631;PMS5003;48703;51.248;-0.546;2023-04-28T04:44:03;1.76;1.71;
62631;PMS5003;48703;51.248;-0.546;2023-04-28T04:47:05;1.80;1.80;
62631;PMS5003;48703;51.248;-0.546;2023-04-28T04:50:07;2.39;2.33;
62631;PMS5003;48703;51.248;-0.546;2023-04-28T04:53:08;1.77;1.60;
62631;PMS5003;48703;51.248;-0.546;2023-04-28T04:56:10;2.34;2.34;
62631;PMS5003;48703;51.248;-0.546;2023-04-28T04:59:11;2.51;2.30;
62631;PMS5003;48703;51.248;-0.546;2023-04-28T05:02:13;2.59;2.37;
62631;PMS5003;48703;51.248;-0.546;2023-04-28T05:05:14;3.39;2.89;
62631;PMS5003;48703;51.248;-0.546;2023-04-28T05:08:16;2.96;2.90;
62631;PMS5003;48703;51.248;-0.546;2023-04-28T05:11:18;2.57;2.57;
62631;PMS5003;48703;51.248;-0.546;2023-04-28T05:14:19;2.67;2.67;
62631;PMS5003;48703;51.248;-0.546;2023-04-28T05:17:21;2.14;2.14;
62631;PMS5003;48703;51.248;-0.546;2023-04-28T05:20:22;3.03;3.03;
62631;PMS5003;48703;51.248;-0.546;2023-04-28T05:23:24;3.26;3.13;
62631;PMS5003;48703;51.248;-0.546;2023-04-28T05:26:26;3.63;3.63;
62631;PMS5003;48703;51.248;-0.546;2023-04-28T05:29:27;3.34;3.21;
62631;PMS5003;48703;51.248;-0.546;2023-04-28T05:32:29;3.31;3.31;
62631;PMS5003;48703;51.248;-0.546;2023-04-28T05:35:30;3.71;3.37;
62631;PMS5003;48703;51.248;-0.546;2023-04-28T05:38:32;4.76;4.24;
62631;PMS5003;48703;51.248;-0.546;2023-04-28T05:41:34;3.59;3.44;
62631;PMS5003;48703;51.248;-0.546;2023-04-28T05:44:35;4.99;3.86;
62631;PMS5003;48703;51.248;-0.546;2023-04-28T05:47:37;5.27;5.26;
62631;PMS5003;48703;51.248;-0.546;2023-04-28T05:50:38;5.19;5.14;
62631;PMS5003;48703;51.248;-0.546;2023-04-28T05:53:40;6.16;4.27;
62631;PMS5003;48703;51.248;-0.546;2023-04-28T05:56:41;4.30;3.91;
62631;PMS5003;48703;51.248;-0.546;2023-04-28T05:59:43;3.56;3.47;
62631;PMS5003;48703;51.248;-0.546;2023-04-28T06:02:45;3.96;3.44;
62631;PMS5003;48703;51.248;-0.546;2023-04-28T06:05:46;3.99;3.99;
62631;PMS5003;48703;51.248;-0.546;2023-04-28T06:08:48;4.24;3.59;
62631;PMS5003;48703;51.248;-0.546;2023-04-28T06:11:50;2.77;2.77;
62631;PMS5003;48703;51.248;-0.546;2023-04-28T06:14:51;2.70;2.70;
62631;PMS5003;48703;51.248;-0.546;2023-04-28T06:17:53;2.19;2.19;
62631;PMS5003;48703;51.248;-0.546;2023-04-28T06:20:54;2.56;2.56;
62631;PMS5003;48703;51.248;-0.546;2023-04-28T06:23:56;2.46;2.16;
62631;PMS5003;48703;51.248;-0.546;2023-04-28T06:26:58;1.80;1.80;
62631;PMS5003;48703;51.248;-0.546;2023-04-28T06:29:59;2.30;2.30;
62631;PMS5003;48703;51.248;-0.546;2023-04-28T06:33:01;2.69;2.69;
62631;PMS5003;48703;51.248;-0.546;2023-04-28T06:36:03;3.47;3.26;
62631;PMS5003;48703;51.248;-0.546;2023-04-28T06:39:04;2.20;2.20;
62631;PMS5003;48703;51.248;-0.546;2023-04-28T06:42:06;2.90;2.89;
62631;PMS5003;48703;51.248;-0.546;2023-04-28T06:45:07;2.73;2.73;
62631;PMS5003;48703;51.248;-0.546;2023-04-28T06:48:09;2.16;2.16;
62631;PMS5003;48703;51.248;-0.546;2023-04-28T06:51:10;2.01;2.01;
62631;PMS5003;48703;51.248;-0.546;2023-04-28T06:54:12;1.60;1.60;
62631;PMS5003;48703;51.248;-0.546;2023-04-28T06:57:14;1.86;1.86;
62631;PMS5003;48703;51.248;-0.546;2023-04-28T07:00:15;2.34;2.00;
62631;PMS5003;48703;51.248;-0.546;2023-04-28T07:03:17;2.09;2.09;
62631;PMS5003;48703;51.248;-0.546;2023-04-28T07:06:18;1.84;1.71;
62631;PMS5003;48703;51.248;-0.546;2023-04-28T07:09:20;2.60;2.60;
62631;PMS5003;48703;51.248;-0.546;2023-04-28T07:12:21;2.80;2.80;
62631;PMS5003;48703;51.248;-0.546;2023-04-28T07:15:23;3.27;2.93;
62631;PMS5003;48703;51.248;-0.546;2023-04-28T07:18:25;2.67;2.46;
62631;PMS5003;48703;51.248;-0.546;2023-04-28T07:21:26;1.91;1.80;
62631;PMS5003;48703;51.248;-0.546;2023-04-28T07:24:28;2.00;1.33;
62631;PMS5003;48703;51.248;-0.546;2023-04-28T07:27:29;1.54;1.54;
62631;PMS5003;48703;51.248;-0.546;2023-04-28T07:30:31;1.53;1.53;
62631;PMS5003;48703;51.248;-0.546;2023-04-28T07:33:32;1.31;1.09;
62631;PMS5003;48703;51.248;-0.546;2023-04-28T07:36:34;1.26;1.26;
62631;PMS5003;48703;51.248;-0.546;2023-04-28T07:39:35;0.64;0.64;
62631;PMS5003;48703;51.248;-0.546;2023-04-28T07:42:37;1.27;1.27;
62631;PMS5003;48703;51.248;-0.546;2023-04-28T07:45:39;0.63;0.63;
62631;PMS5003;48703;51.248;-0.546;2023-04-28T07:48:40;1.00;1.00;
62631;PMS5003;48703;51.248;-0.546;2023-04-28T07:51:42;0.54;0.54;
62631;PMS5003;48703;51.248;-0.546;2023-04-28T07:54:43;0.41;0.41;
62631;PMS5003;48703;51.248;-0.546;2023-04-28T07:57:45;0.91;0.91;
62631;PMS5003;48703;51.248;-0.546;2023-04-28T08:00:46;0.43;0.43;
62631;PMS5003;48703;51.248;-0.546;2023-04-28T08:03:48;0.71;0.71;
62631;PMS5003;48703;51.248;-0.546;2023-04-28T08:06:50;0.54;0.47;
62631;PMS5003;48703;51.248;-0.546;2023-04-28T08:09:51;0.70;0.70;
62631;PMS5003;48703;51.248;-0.546;2023-04-28T08:12:53;0.39;0.39;
62631;PMS5003;48703;51.248;-0.546;2023-04-28T08:15:54;0.27;0.27;
62631;PMS5003;48703;51.248;-0.546;2023-04-28T08:18:56;0.86;0.26;
62631;PMS5003;48703;51.248;-0.546;2023-04-28T08:21:57;1.07;1.07;
62631;PMS5003;48703;51.248;-0.546;2023-04-28T08:24:59;0.57;0.40;
62631;PMS5003;48703;51.248;-0.546;2023-04-28T08:28:00;0.49;0.49;
62631;PMS5003;48703;51.248;-0.546;2023-04-28T08:31:02;0.27;0.27;
62631;PMS5003;48703;51.248;-0.546;2023-04-28T08:34:04;0.37;0.37;
62631;PMS5003;48703;51.248;-0.546;2023-04-28T08:37:05;0.00;0.00;
62631;PMS5003;48703;51.248;-0.546;2023-04-28T08:40:07;0.06;0.06;
62631;PMS5003;48703;51.248;-0.546;2023-04-28T08:43:08;0.00;0.00;
62631;PMS5003;48703;51.248;-0.546;2023-04-28T08:46:10;0.24;0.24;
62631;PMS5003;48703;51.248;-0.546;2023-04-28T08:49:12;0.06;0.06;
62631;PMS5003;48703;51.248;-0.546;2023-04-28T08:52:16;0.00;0.00;
62631;PMS5003;48703;51.248;-0.546;2023-04-28T08:55:14;0.00;0.00;
62631;PMS5003;48703;51.248;-0.546;2023-04-28T08:58:16;0.00;0.00;
62631;PMS5003;48703;51.248;-0.546;2023-04-28T09:01:18;0.00;0.00;
62631;PMS5003;48703;51.248;-0.546;2023-04-28T09:04:19;0.04;0.04;
62631;PMS5003;48703;51.248;-0.546;2023-04-28T09:07:21;0.09;0.09;
62631;PMS5003;48703;51.248;-0.546;2023-04-28T09:10:22;0.23;0.06;
62631;PMS5003;48703;51.248;-0.546;2023-04-28T09:13:24;0.00;0.00;
62631;PMS5003;48703;51.248;-0.546;2023-04-28T09:16:27;0.00;0.00;
62631;PMS5003;48703;51.248;-0.546;2023-04-28T09:19:31;0.00;0.00;
62631;PMS5003;48703;51.248;-0.546;2023-04-28T09:22:28;0.00;0.00;
62631;PMS5003;48703;51.248;-0.546;2023-04-28T09:25:30;0.00;0.00;
62631;PMS5003;48703;51.248;-0.546;2023-04-28T09:28:32;0.00;0.00;
62631;PMS5003;48703;51.248;-0.546;2023-04-28T09:31:33;0.03;0.03;
62631;PMS5003;48703;51.248;-0.546;2023-04-28T09:34:41;0.49;0.49;
62631;PMS5003;48703;51.248;-0.546;2023-04-28T09:37:36;0.00;0.00;
62631;PMS5003;48703;51.248;-0.546;2023-04-28T09:40:54;0.14;0.14;
62631;PMS5003;48703;51.248;-0.546;2023-04-28T09:43:39;0.06;0.06;
62631;PMS5003;48703;51.248;-0.546;2023-04-28T09:46:41;0.13;0.13;
62631;PMS5003;48703;51.248;-0.546;2023-04-28T09:49:52;0.21;0.21;
62631;PMS5003;48703;51.248;-0.546;2023-04-28T09:52:44;0.19;0.19;
62631;PMS5003;48703;51.248;-0.546;2023-04-28T09:55:45;0.06;0.06;
62631;PMS5003;48703;51.248;-0.546;2023-04-28T09:58:47;0.00;0.00;
62631;PMS5003;48703;51.248;-0.546;2023-04-28T10:01:48;0.00;0.00;
62631;PMS5003;48703;51.248;-0.546;2023-04-28T10:04:50;0.04;0.04;
62631;PMS5003;48703;51.248;-0.546;2023-04-28T10:07:52;0.04;0.04;
62631;PMS5003;48703;51.248;-0.546;2023-04-28T10:10:53;1.27;0.66;
62631;PMS5003;48703;51.248;-0.546;2023-04-28T10:13:55;0.67;0.34;
62631;PMS5003;48703;51.248;-0.546;2023-04-28T10:16:56;0.01;0.01;
62631;PMS5003;48703;51.248;-0.546;2023-04-28T10:19:58;1.01;0.84;
62631;PMS5003;48703;51.248;-0.546;2023-04-28T10:23:01;0.80;0.80;
62631;PMS5003;48703;51.248;-0.546;2023-04-28T10:26:01;0.74;0.74;
62631;PMS5003;48703;51.248;-0.546;2023-04-28T10:29:02;1.67;0.90;
62631;PMS5003;48703;51.248;-0.546;2023-04-28T10:32:20;0.49;0.49;
62631;PMS5003;48703;51.248;-0.546;2023-04-28T10:36:10;0.70;0.70;
62631;PMS5003;48703;51.248;-0.546;2023-04-28T10:38:15;0.89;0.67;
62631;PMS5003;48703;51.248;-0.546;2023-04-28T10:41:13;0.64;0.64;
62631;PMS5003;48703;51.248;-0.546;2023-04-28T10:44:42;1.24;0.39;
62631;PMS5003;48703;51.248;-0.546;2023-04-28T10:47:11;1.30;1.30;
62631;PMS5003;48703;51.248;-0.546;2023-04-28T10:50:13;0.70;0.70;
62631;PMS5003;48703;51.248;-0.546;2023-04-28T10:53:15;0.40;0.40;
62631;PMS5003;48703;51.248;-0.546;2023-04-28T10:56:17;0.63;0.57;
62631;PMS5003;48703;51.248;-0.546;2023-04-28T10:59:25;0.21;0.21;
62631;PMS5003;48703;51.248;-0.546;2023-04-28T11:02:35;0.69;0.69;
62631;PMS5003;48703;51.248;-0.546;2023-04-28T11:05:21;1.30;0.87;
62631;PMS5003;48703;51.248;-0.546;2023-04-28T11:08:34;1.01;1.01;
62631;PMS5003;48703;51.248;-0.546;2023-04-28T11:11:24;0.29;0.29;
62631;PMS5003;48703;51.248;-0.546;2023-04-28T11:14:30;1.34;1.20;
62631;PMS5003;48703;51.248;-0.546;2023-04-28T11:17:33;0.81;0.81;
62631;PMS5003;48703;51.248;-0.546;2023-04-28T11:20:28;0.87;0.87;
62631;PMS5003;48703;51.248;-0.546;2023-04-28T11:23:30;1.30;1.30;
62631;PMS5003;48703;51.248;-0.546;2023-04-28T11:26:35;0.83;0.83;
62631;PMS5003;48703;51.248;-0.546;2023-04-28T11:29:33;1.57;1.57;
62631;PMS5003;48703;51.248;-0.546;2023-04-28T11:32:34;1.33;1.33;
62631;PMS5003;48703;51.248;-0.546;2023-04-28T11:35:39;2.14;1.59;
62631;PMS5003;48703;51.248;-0.546;2023-04-28T11:38:42;1.97;1.50;
62631;PMS5003;48703;51.248;-0.546;2023-04-28T11:41:39;2.04;2.04;
62631;PMS5003;48703;51.248;-0.546;2023-04-28T11:44:40;2.16;1.90;
62631;PMS5003;48703;51.248;-0.546;2023-04-28T11:47:42;2.59;2.59;
62631;PMS5003;48703;51.248;-0.546;2023-04-28T11:50:43;2.06;2.06;
62631;PMS5003;48703;51.248;-0.546;2023-04-28T11:53:45;2.79;2.36;
62631;PMS5003;48703;51.248;-0.546;2023-04-28T11:56:46;2.46;2.11;
62631;PMS5003;48703;51.248;-0.546;2023-04-28T11:59:48;3.64;2.74;
62631;PMS5003;48703;51.248;-0.546;2023-04-28T12:02:49;2.57;2.47;
62631;PMS5003;48703;51.248;-0.546;2023-04-28T12:05:51;2.80;2.80;
62631;PMS5003;48703;51.248;-0.546;2023-04-28T12:08:53;3.44;3.10;
62631;PMS5003;48703;51.248;-0.546;2023-04-28T12:11:54;3.97;3.16;
62631;PMS5003;48703;51.248;-0.546;2023-04-28T12:14:56;4.59;4.20;
62631;PMS5003;48703;51.248;-0.546;2023-04-28T12:17:57;3.97;3.97;
62631;PMS5003;48703;51.248;-0.546;2023-04-28T12:20:59;3.77;3.77;
62631;PMS5003;48703;51.248;-0.546;2023-04-28T12:24:00;6.00;4.70;
62631;PMS5003;48703;51.248;-0.546;2023-04-28T12:27:13;4.50;4.50;
62631;PMS5003;48703;51.248;-0.546;2023-04-28T12:30:03;4.53;3.97;
62631;PMS5003;48703;51.248;-0.546;2023-04-28T12:33:05;3.54;3.54;
62631;PMS5003;48703;51.248;-0.546;2023-04-28T12:36:06;4.34;4.26;
62631;PMS5003;48703;51.248;-0.546;2023-04-28T12:39:11;4.26;3.87;
62631;PMS5003;48703;51.248;-0.546;2023-04-28T12:42:09;4.19;4.19;
62631;PMS5003;48703;51.248;-0.546;2023-04-28T12:45:11;5.97;5.54;
62631;PMS5003;48703;51.248;-0.546;2023-04-28T12:48:12;4.71;4.46;
62631;PMS5003;48703;51.248;-0.546;2023-04-28T12:51:13;5.68;5.42;
62631;PMS5003;48703;51.248;-0.546;2023-04-28T12:54:15;5.01;4.84;
62631;PMS5003;48703;51.248;-0.546;2023-04-28T12:57:16;5.41;5.23;
62631;PMS5003;48703;51.248;-0.546;2023-04-28T13:00:18;5.26;5.21;
62631;PMS5003;48703;51.248;-0.546;2023-04-28T13:03:19;4.99;4.69;
62631;PMS5003;48703;51.248;-0.546;2023-04-28T13:06:21;4.71;3.90;
62631;PMS5003;48703;51.248;-0.546;2023-04-28T13:09:23;4.93;4.67;
62631;PMS5003;48703;51.248;-0.546;2023-04-28T13:12:24;5.67;5.59;
62631;PMS5003;48703;51.248;-0.546;2023-04-28T13:15:25;5.61;4.83;
62631;PMS5003;48703;51.248;-0.546;2023-04-28T13:18:27;6.53;5.71;
62631;PMS5003;48703;51.248;-0.546;2023-04-28T13:21:28;5.77;5.47;
62631;PMS5003;48703;51.248;-0.546;2023-04-28T13:24:30;4.89;4.63;
62631;PMS5003;48703;51.248;-0.546;2023-04-28T13:27:31;5.19;4.87;
62631;PMS5003;48703;51.248;-0.546;2023-04-28T13:30:33;5.96;5.39;
62631;PMS5003;48703;51.248;-0.546;2023-04-28T13:33:34;4.71;4.59;
62631;PMS5003;48703;51.248;-0.546;2023-04-28T13:36:36;5.10;4.66;
62631;PMS5003;48703;51.248;-0.546;2023-04-28T13:39:37;5.33;5.33;
62631;PMS5003;48703;51.248;-0.546;2023-04-28T13:42:39;4.39;4.39;
62631;PMS5003;48703;51.248;-0.546;2023-04-28T13:45:40;6.17;5.26;
62631;PMS5003;48703;51.248;-0.546;2023-04-28T13:48:42;5.13;5.09;
62631;PMS5003;48703;51.248;-0.546;2023-04-28T13:51:43;5.13;4.77;
62631;PMS5003;48703;51.248;-0.546;2023-04-28T13:54:45;4.33;3.81;
62631;PMS5003;48703;51.248;-0.546;2023-04-28T13:57:46;4.91;4.91;
62631;PMS5003;48703;51.248;-0.546;2023-04-28T14:00:48;4.23;4.23;
62631;PMS5003;48703;51.248;-0.546;2023-04-28T14:03:49;5.10;4.07;
62631;PMS5003;48703;51.248;-0.546;2023-04-28T14:06:51;4.77;4.77;
62631;PMS5003;48703;51.248;-0.546;2023-04-28T14:09:52;4.69;4.51;
62631;PMS5003;48703;51.248;-0.546;2023-04-28T14:12:54;4.69;4.30;
62631;PMS5003;48703;51.248;-0.546;2023-04-28T14:16:10;3.60;3.24;
62631;PMS5003;48703;51.248;-0.546;2023-04-28T14:18:57;4.39;4.03;
62631;PMS5003;48703;51.248;-0.546;2023-04-28T14:21:58;3.74;3.74;
62631;PMS5003;48703;51.248;-0.546;2023-04-28T14:25:00;2.40;2.40;
62631;PMS5003;48703;51.248;-0.546;2023-04-28T14:28:01;2.60;2.47;
62631;PMS5003;48703;51.248;-0.546;2023-04-28T14:31:03;2.16;2.16;
62631;PMS5003;48703;51.248;-0.546;2023-04-28T14:34:04;3.09;2.73;
62631;PMS5003;48703;51.248;-0.546;2023-04-28T14:37:06;3.06;2.91;
62631;PMS5003;48703;51.248;-0.546;2023-04-28T14:40:07;1.57;1.57;
62631;PMS5003;48703;51.248;-0.546;2023-04-28T14:43:08;2.54;2.27;
62631;PMS5003;48703;51.248;-0.546;2023-04-28T14:46:10;2.43;2.43;
62631;PMS5003;48703;51.248;-0.546;2023-04-28T14:49:11;1.36;1.36;
62631;PMS5003;48703;51.248;-0.546;2023-04-28T14:52:13;2.29;2.29;
62631;PMS5003;48703;51.248;-0.546;2023-04-28T14:55:14;1.67;1.67;
62631;PMS5003;48703;51.248;-0.546;2023-04-28T14:58:16;2.57;1.96;
62631;PMS5003;48703;51.248;-0.546;2023-04-28T15:01:17;2.51;2.30;
62631;PMS5003;48703;51.248;-0.546;2023-04-28T15:04:19;2.19;2.14;
62631;PMS5003;48703;51.248;-0.546;2023-04-28T15:07:20;2.27;2.27;
62631;PMS5003;48703;51.248;-0.546;2023-04-28T15:10:22;1.70;1.70;
62631;PMS5003;48703;51.248;-0.546;2023-04-28T15:13:23;2.11;2.11;
62631;PMS5003;48703;51.248;-0.546;2023-04-28T15:16:25;1.96;1.53;
62631;PMS5003;48703;51.248;-0.546;2023-04-28T15:19:26;1.57;1.14;
62631;PMS5003;48703;51.248;-0.546;2023-04-28T15:22:27;1.14;1.14;
62631;PMS5003;48703;51.248;-0.546;2023-04-28T15:25:29;1.29;1.20;
62631;PMS5003;48703;51.248;-0.546;2023-04-28T15:28:30;1.36;1.36;
62631;PMS5003;48703;51.248;-0.546;2023-04-28T15:31:32;2.39;2.06;
62631;PMS5003;48703;51.248;-0.546;2023-04-28T15:34:34;2.23;1.71;
62631;PMS5003;48703;51.248;-0.546;2023-04-28T15:37:39;1.36;1.36;
62631;PMS5003;48703;51.248;-0.546;2023-04-28T15:40:37;2.11;2.11;
62631;PMS5003;48703;51.248;-0.546;2023-04-28T15:43:38;2.06;2.06;
62631;PMS5003;48703;51.248;-0.546;2023-04-28T15:46:39;2.53;2.53;
62631;PMS5003;48703;51.248;-0.546;2023-04-28T15:49:41;2.79;2.10;
62631;PMS5003;48703;51.248;-0.546;2023-04-28T15:52:42;1.79;1.79;
62631;PMS5003;48703;51.248;-0.546;2023-04-28T15:55:44;1.67;1.61;
62631;PMS5003;48703;51.248;-0.546;2023-04-28T15:58:45;1.56;1.56;
62631;PMS5003;48703;51.248;-0.546;2023-04-28T16:01:47;2.83;2.23;
62631;PMS5003;48703;51.248;-0.546;2023-04-28T16:04:48;2.81;2.81;
62631;PMS5003;48703;51.248;-0.546;2023-04-28T16:07:50;1.94;1.94;
62631;PMS5003;48703;51.248;-0.546;2023-04-28T16:10:51;1.79;1.31;
62631;PMS5003;48703;51.248;-0.546;2023-04-28T16:13:53;1.91;1.91;
62631;PMS5003;48703;51.248;-0.546;2023-04-28T16:16:54;1.83;1.43;
62631;PMS5003;48703;51.248;-0.546;2023-04-28T16:19:56;0.73;0.73;
62631;PMS5003;48703;51.248;-0.546;2023-04-28T16:22:57;1.54;1.23;
62631;PMS5003;48703;51.248;-0.546;2023-04-28T16:25:58;0.74;0.74;
62631;PMS5003;48703;51.248;-0.546;2023-04-28T16:29:00;1.27;1.10;
62631;PMS5003;48703;51.248;-0.546;2023-04-28T16:32:01;0.96;0.96;
62631;PMS5003;48703;51.248;-0.546;2023-04-28T16:35:03;1.54;1.40;
62631;PMS5003;48703;51.248;-0.546;2023-04-28T16:38:04;1.60;1.44;
62631;PMS5003;48703;51.248;-0.546;2023-04-28T16:41:06;1.21;1.21;
62631;PMS5003;48703;51.248;-0.546;2023-04-28T16:44:07;1.11;1.11;
62631;PMS5003;48703;51.248;-0.546;2023-04-28T16:47:09;1.87;1.87;
62631;PMS5003;48703;51.248;-0.546;2023-04-28T16:50:10;1.44;1.44;
62631;PMS5003;48703;51.248;-0.546;2023-04-28T16:53:12;1.91;1.91;
62631;PMS5003;48703;51.248;-0.546;2023-04-28T16:56:13;1.01;0.67;
62631;PMS5003;48703;51.248;-0.546;2023-04-28T16:59:15;1.04;1.04;
62631;PMS5003;48703;51.248;-0.546;2023-04-28T17:02:16;1.51;1.51;
62631;PMS5003;48703;51.248;-0.546;2023-04-28T17:05:18;1.09;1.09;
62631;PMS5003;48703;51.248;-0.546;2023-04-28T17:08:19;1.46;1.46;
62631;PMS5003;48703;51.248;-0.546;2023-04-28T17:11:21;1.13;1.13;
62631;PMS5003;48703;51.248;-0.546;2023-04-28T17:14:22;1.66;1.14;
62631;PMS5003;48703;51.248;-0.546;2023-04-28T17:17:24;1.20;1.20;
62631;PMS5003;48703;51.248;-0.546;2023-04-28T17:20:25;1.30;1.09;
62631;PMS5003;48703;51.248;-0.546;2023-04-28T17:23:27;1.36;1.36;
62631;PMS5003;48703;51.248;-0.546;2023-04-28T17:26:28;2.40;2.40;
62631;PMS5003;48703;51.248;-0.546;2023-04-28T17:29:30;5.69;5.56;
62631;PMS5003;48703;51.248;-0.546;2023-04-28T17:32:31;6.60;6.19;
62631;PMS5003;48703;51.248;-0.546;2023-04-28T17:35:33;7.06;6.71;
62631;PMS5003;48703;51.248;-0.546;2023-04-28T17:38:34;1.57;1.57;
62631;PMS5003;48703;51.248;-0.546;2023-04-28T17:41:36;1.63;1.49;
62631;PMS5003;48703;51.248;-0.546;2023-04-28T17:44:37;1.79;1.79;
62631;PMS5003;48703;51.248;-0.546;2023-04-28T17:47:39;2.76;2.46;
62631;PMS5003;48703;51.248;-0.546;2023-04-28T17:50:40;2.51;2.51;
62631;PMS5003;48703;51.248;-0.546;2023-04-28T17:53:42;4.67;4.67;
62631;PMS5003;48703;51.248;-0.546;2023-04-28T17:56:43;4.37;4.17;
62631;PMS5003;48703;51.248;-0.546;2023-04-28T17:59:47;1.99;1.99;
62631;PMS5003;48703;51.248;-0.546;2023-04-28T18:02:46;2.01;2.01;
62631;PMS5003;48703;51.248;-0.546;2023-04-28T18:05:47;1.91;1.53;
62631;PMS5003;48703;51.248;-0.546;2023-04-28T18:08:49;1.86;1.86;
62631;PMS5003;48703;51.248;-0.546;2023-04-28T18:11:50;1.81;1.81;
62631;PMS5003;48703;51.248;-0.546;2023-04-28T18:14:52;2.06;2.06;
62631;PMS5003;48703;51.248;-0.546;2023-04-28T18:17:53;3.20;3.20;
62631;PMS5003;48703;51.248;-0.546;2023-04-28T18:20:55;3.06;3.06;
62631;PMS5003;48703;51.248;-0.546;2023-04-28T18:23:56;2.64;2.24;
62631;PMS5003;48703;51.248;-0.546;2023-04-28T18:26:58;3.13;3.13;
62631;PMS5003;48703;51.248;-0.546;2023-04-28T18:29:59;4.00;4.00;